sensor_id;sensor_type;location;lat;lon;timestamp;P1;durP1;ratioP1;P2;durP2;ratioP2
23866;SDS011;12114;53.404;-1.502;2023-09-07T00:01:40;20.75;;;15.75;;
23866;SDS011;12114;53.404;-1.502;2023-09-07T00:04:24;20.38;;;15.43;;
23866;SDS011;12114;53.404;-1.502;2023-09-07T00:07:08;20.38;;;15.77;;
23866;SDS011;12114;53.404;-1.502;2023-09-07T00:09:52;18.88;;;14.95;;
23866;SDS011;12114;53.404;-1.502;2023-09-07T00:12:36;21.42;;;15.38;;
23866;SDS011;12114;53.404;-1.502;2023-09-07T00:15:22;21.60;;;15.70;;
23866;SDS011;12114;53.404;-1.502;2023-09-07T00:18:07;22.05;;;16.27;;
23866;SDS011;12114;53.404;-1.502;2023-09-07T00:20:51;22.95;;;16.40;;
23866;SDS011;12114;53.404;-1.502;2023-09-07T00:23:35;22.35;;;15.82;;
23866;SDS011;12114;53.404;-1.502;2023-09-07T00:26:19;18.80;;;14.75;;
23866;SDS011;12114;53.404;-1.502;2023-09-07T00:29:03;22.50;;;16.30;;
23866;SDS011;12114;53.404;-1.502;2023-09-07T00:31:47;21.52;;;16.02;;
23866;SDS011;12114;53.404;-1.502;2023-09-07T00:34:33;23.05;;;16.52;;
23866;SDS011;12114;53.404;-1.502;2023-09-07T00:37:23;23.45;;;16.75;;
23866;SDS011;12114;53.404;-1.502;2023-09-07T00:40:08;22.88;;;16.52;;
23866;SDS011;12114;53.404;-1.502;2023-09-07T00:42:53;23.53;;;16.30;;
23866;SDS011;12114;53.404;-1.502;2023-09-07T00:45:37;25.10;;;16.88;;
23866;SDS011;12114;53.404;-1.502;2023-09-07T00:48:21;23.42;;;17.13;;
23866;SDS011;12114;53.404;-1.502;2023-09-07T00:51:05;27.13;;;18.35;;
23866;SDS011;12114;53.404;-1.502;2023-09-07T00:53:50;23.83;;;17.97;;
23866;SDS011;12114;53.404;-1.502;2023-09-07T00:56:35;27.80;;;18.52;;
23866;SDS011;12114;53.404;-1.502;2023-09-07T00:59:19;24.58;;;18.05;;
23866;SDS011;12114;53.404;-1.502;2023-09-07T01:02:03;25.13;;;18.38;;
23866;SDS011;12114;53.404;-1.502;2023-09-07T01:04:50;26.95;;;19.55;;
23866;SDS011;12114;53.404;-1.502;2023-09-07T01:07:39;24.98;;;19.13;;
23866;SDS011;12114;53.404;-1.502;2023-09-07T01:10:24;26.38;;;18.27;;
23866;SDS011;12114;53.404;-1.502;2023-09-07T01:13:08;30.55;;;17.88;;
23866;SDS011;12114;53.404;-1.502;2023-09-07T01:15:52;25.77;;;17.45;;
23866;SDS011;12114;53.404;-1.502;2023-09-07T01:18:36;27.38;;;19.17;;
23866;SDS011;12114;53.404;-1.502;2023-09-07T01:21:21;27.23;;;18.33;;
23866;SDS011;12114;53.404;-1.502;2023-09-07T01:24:09;26.77;;;18.75;;
23866;SDS011;12114;53.404;-1.502;2023-09-07T01:26:53;26.73;;;19.27;;
23866;SDS011;12114;53.404;-1.502;2023-09-07T01:29:37;27.27;;;19.33;;
23866;SDS011;12114;53.404;-1.502;2023-09-07T01:32:21;27.60;;;19.00;;
23866;SDS011;12114;53.404;-1.502;2023-09-07T01:35:05;29.70;;;20.00;;
23866;SDS011;12114;53.404;-1.502;2023-09-07T01:37:51;25.90;;;18.98;;
23866;SDS011;12114;53.404;-1.502;2023-09-07T01:40:35;28.48;;;18.98;;
23866;SDS011;12114;53.404;-1.502;2023-09-07T01:43:19;25.77;;;19.35;;
23866;SDS011;12114;53.404;-1.502;2023-09-07T01:46:03;31.77;;;20.33;;
23866;SDS011;12114;53.404;-1.502;2023-09-07T01:48:47;26.92;;;19.58;;
23866;SDS011;12114;53.404;-1.502;2023-09-07T01:51:31;28.80;;;20.13;;
23866;SDS011;12114;53.404;-1.502;2023-09-07T01:54:15;30.02;;;20.10;;
23866;SDS011;12114;53.404;-1.502;2023-09-07T01:56:59;28.92;;;19.38;;
23866;SDS011;12114;53.404;-1.502;2023-09-07T01:59:43;29.02;;;20.25;;
23866;SDS011;12114;53.404;-1.502;2023-09-07T02:02:27;28.27;;;20.13;;
23866;SDS011;12114;53.404;-1.502;2023-09-07T02:05:11;30.83;;;20.25;;
23866;SDS011;12114;53.404;-1.502;2023-09-07T02:07:56;27.38;;;20.83;;
23866;SDS011;12114;53.404;-1.502;2023-09-07T02:10:40;30.70;;;19.92;;
23866;SDS011;12114;53.404;-1.502;2023-09-07T02:13:24;32.95;;;21.98;;
23866;SDS011;12114;53.404;-1.502;2023-09-07T02:16:08;30.13;;;20.80;;
23866;SDS011;12114;53.404;-1.502;2023-09-07T02:18:59;30.05;;;21.88;;
23866;SDS011;12114;53.404;-1.502;2023-09-07T02:21:44;33.38;;;21.80;;
23866;SDS011;12114;53.404;-1.502;2023-09-07T02:24:28;31.38;;;20.85;;
23866;SDS011;12114;53.404;-1.502;2023-09-07T02:27:12;27.08;;;20.25;;
23866;SDS011;12114;53.404;-1.502;2023-09-07T02:29:56;30.83;;;20.88;;
23866;SDS011;12114;53.404;-1.502;2023-09-07T02:32:41;28.50;;;20.48;;
23866;SDS011;12114;53.404;-1.502;2023-09-07T02:35:25;32.40;;;20.52;;
23866;SDS011;12114;53.404;-1.502;2023-09-07T02:38:09;29.17;;;20.17;;
23866;SDS011;12114;53.404;-1.502;2023-09-07T02:40:54;30.50;;;20.83;;
23866;SDS011;12114;53.404;-1.502;2023-09-07T02:43:38;27.07;;;19.90;;
23866;SDS011;12114;53.404;-1.502;2023-09-07T02:46:22;25.83;;;20.33;;
23866;SDS011;12114;53.404;-1.502;2023-09-07T02:49:06;28.02;;;21.23;;
23866;SDS011;12114;53.404;-1.502;2023-09-07T02:51:50;33.15;;;21.45;;
23866;SDS011;12114;53.404;-1.502;2023-09-07T02:54:34;29.40;;;20.58;;
23866;SDS011;12114;53.404;-1.502;2023-09-07T02:57:18;30.15;;;20.52;;
23866;SDS011;12114;53.404;-1.502;2023-09-07T03:00:02;28.55;;;19.33;;
23866;SDS011;12114;53.404;-1.502;2023-09-07T03:02:53;28.42;;;20.13;;
23866;SDS011;12114;53.404;-1.502;2023-09-07T03:05:38;26.52;;;18.73;;
23866;SDS011;12114;53.404;-1.502;2023-09-07T03:08:22;32.10;;;19.33;;
23866;SDS011;12114;53.404;-1.502;2023-09-07T03:11:08;28.77;;;19.77;;
23866;SDS011;12114;53.404;-1.502;2023-09-07T03:13:52;26.23;;;19.05;;
23866;SDS011;12114;53.404;-1.502;2023-09-07T03:16:36;30.88;;;19.60;;
23866;SDS011;12114;53.404;-1.502;2023-09-07T03:19:22;25.63;;;18.30;;
23866;SDS011;12114;53.404;-1.502;2023-09-07T03:22:06;30.27;;;19.40;;
23866;SDS011;12114;53.404;-1.502;2023-09-07T03:24:50;26.80;;;19.50;;
23866;SDS011;12114;53.404;-1.502;2023-09-07T03:27:34;28.90;;;19.70;;
23866;SDS011;12114;53.404;-1.502;2023-09-07T03:30:18;27.48;;;19.35;;
23866;SDS011;12114;53.404;-1.502;2023-09-07T03:33:02;25.80;;;19.13;;
23866;SDS011;12114;53.404;-1.502;2023-09-07T03:35:47;29.20;;;19.30;;
23866;SDS011;12114;53.404;-1.502;2023-09-07T03:38:31;24.25;;;18.38;;
23866;SDS011;12114;53.404;-1.502;2023-09-07T03:41:15;26.77;;;19.52;;
23866;SDS011;12114;53.404;-1.502;2023-09-07T03:44:01;26.48;;;17.35;;
23866;SDS011;12114;53.404;-1.502;2023-09-07T03:46:45;22.70;;;17.30;;
23866;SDS011;12114;53.404;-1.502;2023-09-07T03:49:29;26.73;;;19.77;;
23866;SDS011;12114;53.404;-1.502;2023-09-07T03:52:13;25.25;;;17.92;;
23866;SDS011;12114;53.404;-1.502;2023-09-07T03:55:03;24.27;;;18.42;;
23866;SDS011;12114;53.404;-1.502;2023-09-07T03:57:47;23.23;;;17.77;;
23866;SDS011;12114;53.404;-1.502;2023-09-07T04:00:31;25.52;;;18.33;;
23866;SDS011;12114;53.404;-1.502;2023-09-07T04:03:18;27.20;;;18.42;;
23866;SDS011;12114;53.404;-1.502;2023-09-07T04:06:02;26.05;;;18.30;;
23866;SDS011;12114;53.404;-1.502;2023-09-07T04:08:49;24.83;;;18.67;;
23866;SDS011;12114;53.404;-1.502;2023-09-07T04:11:33;25.77;;;18.60;;
23866;SDS011;12114;53.404;-1.502;2023-09-07T04:14:17;23.35;;;17.90;;
23866;SDS011;12114;53.404;-1.502;2023-09-07T04:17:02;25.48;;;18.25;;
23866;SDS011;12114;53.404;-1.502;2023-09-07T04:19:45;23.95;;;18.30;;
23866;SDS011;12114;53.404;-1.502;2023-09-07T04:22:29;25.65;;;18.48;;
23866;SDS011;12114;53.404;-1.502;2023-09-07T04:25:13;27.92;;;19.58;;
23866;SDS011;12114;53.404;-1.502;2023-09-07T04:27:57;29.92;;;20.15;;
23866;SDS011;12114;53.404;-1.502;2023-09-07T04:30:41;28.30;;;19.10;;
23866;SDS011;12114;53.404;-1.502;2023-09-07T04:33:25;26.73;;;19.83;;
23866;SDS011;12114;53.404;-1.502;2023-09-07T04:36:10;29.27;;;19.63;;
23866;SDS011;12114;53.404;-1.502;2023-09-07T04:38:53;27.70;;;19.63;;
23866;SDS011;12114;53.404;-1.502;2023-09-07T04:41:37;25.45;;;18.83;;
23866;SDS011;12114;53.404;-1.502;2023-09-07T04:44:21;28.92;;;17.92;;
23866;SDS011;12114;53.404;-1.502;2023-09-07T04:47:05;23.60;;;17.60;;
23866;SDS011;12114;53.404;-1.502;2023-09-07T04:49:49;26.52;;;18.35;;
23866;SDS011;12114;53.404;-1.502;2023-09-07T04:52:36;26.08;;;19.13;;
23866;SDS011;12114;53.404;-1.502;2023-09-07T04:55:20;25.85;;;18.60;;
23866;SDS011;12114;53.404;-1.502;2023-09-07T04:58:04;25.50;;;19.90;;
23866;SDS011;12114;53.404;-1.502;2023-09-07T05:00:48;26.67;;;19.52;;
23866;SDS011;12114;53.404;-1.502;2023-09-07T05:03:32;27.50;;;20.83;;
23866;SDS011;12114;53.404;-1.502;2023-09-07T05:06:17;26.15;;;19.27;;
23866;SDS011;12114;53.404;-1.502;2023-09-07T05:09:01;26.83;;;20.33;;
23866;SDS011;12114;53.404;-1.502;2023-09-07T05:11:45;29.25;;;20.80;;
23866;SDS011;12114;53.404;-1.502;2023-09-07T05:14:29;25.90;;;19.92;;
23866;SDS011;12114;53.404;-1.502;2023-09-07T05:17:13;26.35;;;19.98;;
23866;SDS011;12114;53.404;-1.502;2023-09-07T05:19:57;32.97;;;21.63;;
23866;SDS011;12114;53.404;-1.502;2023-09-07T05:22:41;29.65;;;20.92;;
23866;SDS011;12114;53.404;-1.502;2023-09-07T05:25:25;30.75;;;21.20;;
23866;SDS011;12114;53.404;-1.502;2023-09-07T05:28:08;35.08;;;21.42;;
23866;SDS011;12114;53.404;-1.502;2023-09-07T05:30:52;31.10;;;21.77;;
23866;SDS011;12114;53.404;-1.502;2023-09-07T05:33:36;32.28;;;22.58;;
23866;SDS011;12114;53.404;-1.502;2023-09-07T05:36:21;30.88;;;21.55;;
23866;SDS011;12114;53.404;-1.502;2023-09-07T05:39:05;29.67;;;21.05;;
23866;SDS011;12114;53.404;-1.502;2023-09-07T05:41:49;29.10;;;21.23;;
23866;SDS011;12114;53.404;-1.502;2023-09-07T05:44:33;27.80;;;20.58;;
23866;SDS011;12114;53.404;-1.502;2023-09-07T05:47:18;27.63;;;20.15;;
23866;SDS011;12114;53.404;-1.502;2023-09-07T05:50:02;27.88;;;19.80;;
23866;SDS011;12114;53.404;-1.502;2023-09-07T05:52:46;28.05;;;19.73;;
23866;SDS011;12114;53.404;-1.502;2023-09-07T05:55:30;27.67;;;20.33;;
23866;SDS011;12114;53.404;-1.502;2023-09-07T05:58:14;29.55;;;21.20;;
23866;SDS011;12114;53.404;-1.502;2023-09-07T06:00:59;25.98;;;19.15;;
23866;SDS011;12114;53.404;-1.502;2023-09-07T06:03:43;25.25;;;18.15;;
23866;SDS011;12114;53.404;-1.502;2023-09-07T06:06:26;29.35;;;18.40;;
23866;SDS011;12114;53.404;-1.502;2023-09-07T06:09:10;27.60;;;18.98;;
23866;SDS011;12114;53.404;-1.502;2023-09-07T06:11:54;34.22;;;24.70;;
23866;SDS011;12114;53.404;-1.502;2023-09-07T06:14:38;39.65;;;24.65;;
23866;SDS011;12114;53.404;-1.502;2023-09-07T06:17:22;37.05;;;25.45;;
23866;SDS011;12114;53.404;-1.502;2023-09-07T06:20:06;56.30;;;37.83;;
23866;SDS011;12114;53.404;-1.502;2023-09-07T06:22:51;52.63;;;34.78;;
23866;SDS011;12114;53.404;-1.502;2023-09-07T06:25:35;50.50;;;34.58;;
23866;SDS011;12114;53.404;-1.502;2023-09-07T06:28:19;58.60;;;38.20;;
23866;SDS011;12114;53.404;-1.502;2023-09-07T06:31:03;50.05;;;35.33;;
23866;SDS011;12114;53.404;-1.502;2023-09-07T06:33:46;53.22;;;35.58;;
23866;SDS011;12114;53.404;-1.502;2023-09-07T06:36:30;52.72;;;35.65;;
23866;SDS011;12114;53.404;-1.502;2023-09-07T06:39:14;51.58;;;33.75;;
23866;SDS011;12114;53.404;-1.502;2023-09-07T06:41:58;50.97;;;34.25;;
23866;SDS011;12114;53.404;-1.502;2023-09-07T06:44:42;49.17;;;33.95;;
23866;SDS011;12114;53.404;-1.502;2023-09-07T06:47:26;51.30;;;34.33;;
23866;SDS011;12114;53.404;-1.502;2023-09-07T06:50:10;45.97;;;32.10;;
23866;SDS011;12114;53.404;-1.502;2023-09-07T06:52:54;43.00;;;30.20;;
23866;SDS011;12114;53.404;-1.502;2023-09-07T06:55:38;42.17;;;28.10;;
23866;SDS011;12114;53.404;-1.502;2023-09-07T06:58:22;40.42;;;27.33;;
23866;SDS011;12114;53.404;-1.502;2023-09-07T07:01:06;38.58;;;25.77;;
23866;SDS011;12114;53.404;-1.502;2023-09-07T07:03:51;38.17;;;25.42;;
23866;SDS011;12114;53.404;-1.502;2023-09-07T07:06:35;35.47;;;25.23;;
23866;SDS011;12114;53.404;-1.502;2023-09-07T07:09:19;32.90;;;24.25;;
23866;SDS011;12114;53.404;-1.502;2023-09-07T07:12:03;37.03;;;25.60;;
23866;SDS011;12114;53.404;-1.502;2023-09-07T07:14:47;39.47;;;26.80;;
23866;SDS011;12114;53.404;-1.502;2023-09-07T07:17:31;36.88;;;24.88;;
23866;SDS011;12114;53.404;-1.502;2023-09-07T07:20:15;37.42;;;26.00;;
23866;SDS011;12114;53.404;-1.502;2023-09-07T07:22:59;34.72;;;25.02;;
23866;SDS011;12114;53.404;-1.502;2023-09-07T07:25:43;40.03;;;25.80;;
23866;SDS011;12114;53.404;-1.502;2023-09-07T07:28:27;37.38;;;25.15;;
23866;SDS011;12114;53.404;-1.502;2023-09-07T07:31:11;35.97;;;24.40;;
23866;SDS011;12114;53.404;-1.502;2023-09-07T07:33:55;33.45;;;22.15;;
23866;SDS011;12114;53.404;-1.502;2023-09-07T07:36:39;35.58;;;21.27;;
23866;SDS011;12114;53.404;-1.502;2023-09-07T07:39:23;37.45;;;22.40;;
23866;SDS011;12114;53.404;-1.502;2023-09-07T07:42:07;28.40;;;19.98;;
23866;SDS011;12114;53.404;-1.502;2023-09-07T07:44:51;26.92;;;19.02;;
23866;SDS011;12114;53.404;-1.502;2023-09-07T07:47:35;27.95;;;21.02;;
23866;SDS011;12114;53.404;-1.502;2023-09-07T07:50:19;27.92;;;21.63;;
23866;SDS011;12114;53.404;-1.502;2023-09-07T07:53:03;29.90;;;22.42;;
23866;SDS011;12114;53.404;-1.502;2023-09-07T07:55:47;28.10;;;20.80;;
23866;SDS011;12114;53.404;-1.502;2023-09-07T07:58:32;26.80;;;21.15;;
23866;SDS011;12114;53.404;-1.502;2023-09-07T08:01:17;29.75;;;21.50;;
23866;SDS011;12114;53.404;-1.502;2023-09-07T08:04:01;28.40;;;22.27;;
23866;SDS011;12114;53.404;-1.502;2023-09-07T08:06:45;31.25;;;23.73;;
23866;SDS011;12114;53.404;-1.502;2023-09-07T08:09:29;31.65;;;21.60;;
23866;SDS011;12114;53.404;-1.502;2023-09-07T08:12:13;30.58;;;21.52;;
23866;SDS011;12114;53.404;-1.502;2023-09-07T08:14:57;31.23;;;21.15;;
23866;SDS011;12114;53.404;-1.502;2023-09-07T08:17:41;29.55;;;21.65;;
23866;SDS011;12114;53.404;-1.502;2023-09-07T08:20:26;29.10;;;21.63;;
23866;SDS011;12114;53.404;-1.502;2023-09-07T08:23:10;26.83;;;19.77;;
23866;SDS011;12114;53.404;-1.502;2023-09-07T08:25:55;27.27;;;20.10;;
23866;SDS011;12114;53.404;-1.502;2023-09-07T08:28:39;22.40;;;17.70;;
23866;SDS011;12114;53.404;-1.502;2023-09-07T08:31:22;26.58;;;19.52;;
23866;SDS011;12114;53.404;-1.502;2023-09-07T08:34:07;24.50;;;18.08;;
23866;SDS011;12114;53.404;-1.502;2023-09-07T08:36:55;20.65;;;16.10;;
23866;SDS011;12114;53.404;-1.502;2023-09-07T08:39:42;22.13;;;15.77;;
23866;SDS011;12114;53.404;-1.502;2023-09-07T08:42:26;24.67;;;17.27;;
23866;SDS011;12114;53.404;-1.502;2023-09-07T08:45:10;23.90;;;16.30;;
23866;SDS011;12114;53.404;-1.502;2023-09-07T08:47:57;21.92;;;16.90;;
23866;SDS011;12114;53.404;-1.502;2023-09-07T08:50:42;21.83;;;14.95;;
23866;SDS011;12114;53.404;-1.502;2023-09-07T08:53:26;22.55;;;15.68;;
23866;SDS011;12114;53.404;-1.502;2023-09-07T08:56:10;18.30;;;12.95;;
23866;SDS011;12114;53.404;-1.502;2023-09-07T08:58:54;20.83;;;14.63;;
23866;SDS011;12114;53.404;-1.502;2023-09-07T09:01:38;21.15;;;14.27;;
23866;SDS011;12114;53.404;-1.502;2023-09-07T09:04:22;20.80;;;14.40;;
23866;SDS011;12114;53.404;-1.502;2023-09-07T09:07:06;20.10;;;14.38;;
23866;SDS011;12114;53.404;-1.502;2023-09-07T09:09:50;20.70;;;13.40;;
23866;SDS011;12114;53.404;-1.502;2023-09-07T09:12:34;18.67;;;11.65;;
23866;SDS011;12114;53.404;-1.502;2023-09-07T09:15:18;17.38;;;10.40;;
23866;SDS011;12114;53.404;-1.502;2023-09-07T09:18:12;15.48;;;11.27;;
23866;SDS011;12114;53.404;-1.502;2023-09-07T09:20:57;14.75;;;9.73;;
23866;SDS011;12114;53.404;-1.502;2023-09-07T09:23:44;17.70;;;10.68;;
23866;SDS011;12114;53.404;-1.502;2023-09-07T09:26:28;16.83;;;10.88;;
23866;SDS011;12114;53.404;-1.502;2023-09-07T09:29:12;16.00;;;11.55;;
23866;SDS011;12114;53.404;-1.502;2023-09-07T09:31:59;16.67;;;11.40;;
23866;SDS011;12114;53.404;-1.502;2023-09-07T09:37:27;17.10;;;10.73;;
23866;SDS011;12114;53.404;-1.502;2023-09-07T09:40:12;20.48;;;12.27;;
23866;SDS011;12114;53.404;-1.502;2023-09-07T09:42:56;22.65;;;13.43;;
23866;SDS011;12114;53.404;-1.502;2023-09-07T09:45:41;16.65;;;12.07;;
23866;SDS011;12114;53.404;-1.502;2023-09-07T09:48:25;24.95;;;14.32;;
23866;SDS011;12114;53.404;-1.502;2023-09-07T09:51:11;21.70;;;13.68;;
23866;SDS011;12114;53.404;-1.502;2023-09-07T09:53:55;23.95;;;16.23;;
23866;SDS011;12114;53.404;-1.502;2023-09-07T09:56:39;24.40;;;16.60;;
23866;SDS011;12114;53.404;-1.502;2023-09-07T09:59:23;18.70;;;14.80;;
23866;SDS011;12114;53.404;-1.502;2023-09-07T10:02:07;24.48;;;16.45;;
23866;SDS011;12114;53.404;-1.502;2023-09-07T10:04:51;24.15;;;17.50;;
23866;SDS011;12114;53.404;-1.502;2023-09-07T10:07:42;21.98;;;15.98;;
23866;SDS011;12114;53.404;-1.502;2023-09-07T10:10:31;24.25;;;17.98;;
23866;SDS011;12114;53.404;-1.502;2023-09-07T10:13:16;26.95;;;17.52;;
23866;SDS011;12114;53.404;-1.502;2023-09-07T10:16:04;27.85;;;19.23;;
23866;SDS011;12114;53.404;-1.502;2023-09-07T10:18:51;23.17;;;17.02;;
23866;SDS011;12114;53.404;-1.502;2023-09-07T10:21:39;24.52;;;17.95;;
23866;SDS011;12114;53.404;-1.502;2023-09-07T10:24:30;22.95;;;16.50;;
23866;SDS011;12114;53.404;-1.502;2023-09-07T10:27:17;22.17;;;15.65;;
23866;SDS011;12114;53.404;-1.502;2023-09-07T10:30:01;21.42;;;16.35;;
23866;SDS011;12114;53.404;-1.502;2023-09-07T10:32:52;19.77;;;15.93;;
23866;SDS011;12114;53.404;-1.502;2023-09-07T10:35:36;25.27;;;18.15;;
23866;SDS011;12114;53.404;-1.502;2023-09-07T10:38:21;23.35;;;17.65;;
23866;SDS011;12114;53.404;-1.502;2023-09-07T10:41:05;22.77;;;17.70;;
23866;SDS011;12114;53.404;-1.502;2023-09-07T10:43:50;20.63;;;15.68;;
23866;SDS011;12114;53.404;-1.502;2023-09-07T10:46:34;23.38;;;13.23;;
23866;SDS011;12114;53.404;-1.502;2023-09-07T10:49:18;17.17;;;12.45;;
23866;SDS011;12114;53.404;-1.502;2023-09-07T10:52:02;16.15;;;11.98;;
23866;SDS011;12114;53.404;-1.502;2023-09-07T10:54:55;15.88;;;10.90;;
23866;SDS011;12114;53.404;-1.502;2023-09-07T10:57:43;17.83;;;11.65;;
23866;SDS011;12114;53.404;-1.502;2023-09-07T11:00:27;19.48;;;14.80;;
23866;SDS011;12114;53.404;-1.502;2023-09-07T11:03:12;14.73;;;11.98;;
23866;SDS011;12114;53.404;-1.502;2023-09-07T11:05:59;14.40;;;10.23;;
23866;SDS011;12114;53.404;-1.502;2023-09-07T11:08:43;18.85;;;12.25;;
23866;SDS011;12114;53.404;-1.502;2023-09-07T11:11:27;17.13;;;13.38;;
23866;SDS011;12114;53.404;-1.502;2023-09-07T11:14:12;24.00;;;12.73;;
23866;SDS011;12114;53.404;-1.502;2023-09-07T11:16:56;18.52;;;12.68;;
23866;SDS011;12114;53.404;-1.502;2023-09-07T11:19:40;15.65;;;10.48;;
23866;SDS011;12114;53.404;-1.502;2023-09-07T11:22:23;14.90;;;9.70;;
23866;SDS011;12114;53.404;-1.502;2023-09-07T11:25:08;15.52;;;9.40;;
23866;SDS011;12114;53.404;-1.502;2023-09-07T11:27:52;12.85;;;9.38;;
23866;SDS011;12114;53.404;-1.502;2023-09-07T11:30:48;14.40;;;10.25;;
23866;SDS011;12114;53.404;-1.502;2023-09-07T11:33:33;14.82;;;11.48;;
23866;SDS011;12114;53.404;-1.502;2023-09-07T11:36:17;14.20;;;10.45;;
23866;SDS011;12114;53.404;-1.502;2023-09-07T11:39:01;12.57;;;9.48;;
23866;SDS011;12114;53.404;-1.502;2023-09-07T11:41:51;17.48;;;10.82;;
23866;SDS011;12114;53.404;-1.502;2023-09-07T11:44:35;11.25;;;7.80;;
23866;SDS011;12114;53.404;-1.502;2023-09-07T11:47:18;15.13;;;10.27;;
23866;SDS011;12114;53.404;-1.502;2023-09-07T11:50:03;15.75;;;10.70;;
23866;SDS011;12114;53.404;-1.502;2023-09-07T11:52:47;15.07;;;9.82;;
23866;SDS011;12114;53.404;-1.502;2023-09-07T11:55:31;13.73;;;8.98;;
23866;SDS011;12114;53.404;-1.502;2023-09-07T11:58:16;16.88;;;9.77;;
23866;SDS011;12114;53.404;-1.502;2023-09-07T12:01:00;16.27;;;9.13;;
23866;SDS011;12114;53.404;-1.502;2023-09-07T12:03:44;16.23;;;10.25;;
23866;SDS011;12114;53.404;-1.502;2023-09-07T12:06:28;14.77;;;10.23;;
23866;SDS011;12114;53.404;-1.502;2023-09-07T12:09:12;11.68;;;8.38;;
23866;SDS011;12114;53.404;-1.502;2023-09-07T12:11:58;14.90;;;8.95;;
23866;SDS011;12114;53.404;-1.502;2023-09-07T12:14:42;15.27;;;9.63;;
23866;SDS011;12114;53.404;-1.502;2023-09-07T12:17:26;11.48;;;8.30;;
23866;SDS011;12114;53.404;-1.502;2023-09-07T12:20:10;14.55;;;9.10;;
23866;SDS011;12114;53.404;-1.502;2023-09-07T12:22:57;11.25;;;6.60;;
23866;SDS011;12114;53.404;-1.502;2023-09-07T12:25:41;12.85;;;6.38;;
23866;SDS011;12114;53.404;-1.502;2023-09-07T12:28:25;11.00;;;7.75;;
23866;SDS011;12114;53.404;-1.502;2023-09-07T12:31:10;15.20;;;8.93;;
23866;SDS011;12114;53.404;-1.502;2023-09-07T12:33:55;15.15;;;7.20;;
23866;SDS011;12114;53.404;-1.502;2023-09-07T12:36:39;12.02;;;7.57;;
23866;SDS011;12114;53.404;-1.502;2023-09-07T12:39:22;10.70;;;6.50;;
23866;SDS011;12114;53.404;-1.502;2023-09-07T12:42:06;12.35;;;7.82;;
23866;SDS011;12114;53.404;-1.502;2023-09-07T12:44:50;10.25;;;7.65;;
23866;SDS011;12114;53.404;-1.502;2023-09-07T12:47:34;9.93;;;7.40;;
23866;SDS011;12114;53.404;-1.502;2023-09-07T12:50:18;13.30;;;7.60;;
23866;SDS011;12114;53.404;-1.502;2023-09-07T12:53:02;9.88;;;7.10;;
23866;SDS011;12114;53.404;-1.502;2023-09-07T12:55:46;12.70;;;7.25;;
23866;SDS011;12114;53.404;-1.502;2023-09-07T12:58:30;15.35;;;7.93;;
23866;SDS011;12114;53.404;-1.502;2023-09-07T13:01:14;11.35;;;6.85;;
23866;SDS011;12114;53.404;-1.502;2023-09-07T13:06:44;12.82;;;6.90;;
23866;SDS011;12114;53.404;-1.502;2023-09-07T13:09:29;13.57;;;7.47;;
23866;SDS011;12114;53.404;-1.502;2023-09-07T13:12:13;23.85;;;7.63;;
23866;SDS011;12114;53.404;-1.502;2023-09-07T13:14:57;11.95;;;7.22;;
23866;SDS011;12114;53.404;-1.502;2023-09-07T13:17:41;11.48;;;7.75;;
23866;SDS011;12114;53.404;-1.502;2023-09-07T13:20:25;8.63;;;7.05;;
23866;SDS011;12114;53.404;-1.502;2023-09-07T13:23:09;10.98;;;7.80;;
23866;SDS011;12114;53.404;-1.502;2023-09-07T13:25:56;13.57;;;7.60;;
23866;SDS011;12114;53.404;-1.502;2023-09-07T13:28:40;10.75;;;6.80;;
23866;SDS011;12114;53.404;-1.502;2023-09-07T13:31:24;13.00;;;7.90;;
23866;SDS011;12114;53.404;-1.502;2023-09-07T13:34:08;8.77;;;5.85;;
23866;SDS011;12114;53.404;-1.502;2023-09-07T13:36:52;11.00;;;6.63;;
23866;SDS011;12114;53.404;-1.502;2023-09-07T13:39:36;13.13;;;6.93;;
23866;SDS011;12114;53.404;-1.502;2023-09-07T13:42:20;12.55;;;7.65;;
23866;SDS011;12114;53.404;-1.502;2023-09-07T13:45:05;12.65;;;7.55;;
23866;SDS011;12114;53.404;-1.502;2023-09-07T13:47:49;10.70;;;7.03;;
23866;SDS011;12114;53.404;-1.502;2023-09-07T13:50:33;10.93;;;7.22;;
23866;SDS011;12114;53.404;-1.502;2023-09-07T13:53:17;17.50;;;8.68;;
23866;SDS011;12114;53.404;-1.502;2023-09-07T13:56:01;14.10;;;7.18;;
23866;SDS011;12114;53.404;-1.502;2023-09-07T13:58:45;19.60;;;7.75;;
23866;SDS011;12114;53.404;-1.502;2023-09-07T14:01:29;11.10;;;7.43;;
23866;SDS011;12114;53.404;-1.502;2023-09-07T14:04:13;14.73;;;8.60;;
23866;SDS011;12114;53.404;-1.502;2023-09-07T14:06:57;15.20;;;8.70;;
23866;SDS011;12114;53.404;-1.502;2023-09-07T14:09:41;20.17;;;9.25;;
23866;SDS011;12114;53.404;-1.502;2023-09-07T14:12:25;10.30;;;6.90;;
23866;SDS011;12114;53.404;-1.502;2023-09-07T14:15:09;11.68;;;8.18;;
23866;SDS011;12114;53.404;-1.502;2023-09-07T14:17:53;15.07;;;7.95;;
23866;SDS011;12114;53.404;-1.502;2023-09-07T14:20:37;15.45;;;8.40;;
23866;SDS011;12114;53.404;-1.502;2023-09-07T14:23:21;12.52;;;8.18;;
23866;SDS011;12114;53.404;-1.502;2023-09-07T14:26:05;17.05;;;8.10;;
23866;SDS011;12114;53.404;-1.502;2023-09-07T14:28:49;52.55;;;12.32;;
23866;SDS011;12114;53.404;-1.502;2023-09-07T14:31:34;21.02;;;8.48;;
23866;SDS011;12114;53.404;-1.502;2023-09-07T14:34:18;9.20;;;7.47;;
23866;SDS011;12114;53.404;-1.502;2023-09-07T14:37:02;13.77;;;8.00;;
23866;SDS011;12114;53.404;-1.502;2023-09-07T14:39:46;18.70;;;8.30;;
23866;SDS011;12114;53.404;-1.502;2023-09-07T14:42:33;15.65;;;8.60;;
23866;SDS011;12114;53.404;-1.502;2023-09-07T14:45:17;12.88;;;7.00;;
23866;SDS011;12114;53.404;-1.502;2023-09-07T14:48:01;16.73;;;8.27;;
23866;SDS011;12114;53.404;-1.502;2023-09-07T14:50:45;16.60;;;8.95;;
23866;SDS011;12114;53.404;-1.502;2023-09-07T14:53:29;10.98;;;7.07;;
23866;SDS011;12114;53.404;-1.502;2023-09-07T14:56:13;15.18;;;7.80;;
23866;SDS011;12114;53.404;-1.502;2023-09-07T14:58:57;12.68;;;7.00;;
23866;SDS011;12114;53.404;-1.502;2023-09-07T15:01:41;11.48;;;6.65;;
23866;SDS011;12114;53.404;-1.502;2023-09-07T15:04:26;13.20;;;6.95;;
23866;SDS011;12114;53.404;-1.502;2023-09-07T15:07:10;16.63;;;7.13;;
23866;SDS011;12114;53.404;-1.502;2023-09-07T15:09:54;13.88;;;7.43;;
23866;SDS011;12114;53.404;-1.502;2023-09-07T15:12:38;12.82;;;7.30;;
23866;SDS011;12114;53.404;-1.502;2023-09-07T15:15:22;11.98;;;6.25;;
23866;SDS011;12114;53.404;-1.502;2023-09-07T15:18:06;11.48;;;5.85;;
23866;SDS011;12114;53.404;-1.502;2023-09-07T15:20:50;11.55;;;6.35;;
23866;SDS011;12114;53.404;-1.502;2023-09-07T15:23:35;8.38;;;6.55;;
23866;SDS011;12114;53.404;-1.502;2023-09-07T15:26:19;7.70;;;5.30;;
23866;SDS011;12114;53.404;-1.502;2023-09-07T15:29:03;6.47;;;4.90;;
23866;SDS011;12114;53.404;-1.502;2023-09-07T15:31:47;9.85;;;5.68;;
23866;SDS011;12114;53.404;-1.502;2023-09-07T15:34:32;8.18;;;5.28;;
23866;SDS011;12114;53.404;-1.502;2023-09-07T15:37:17;8.43;;;5.82;;
23866;SDS011;12114;53.404;-1.502;2023-09-07T15:40:01;10.10;;;5.38;;
23866;SDS011;12114;53.404;-1.502;2023-09-07T15:42:45;9.73;;;5.72;;
23866;SDS011;12114;53.404;-1.502;2023-09-07T15:45:29;9.07;;;5.22;;
23866;SDS011;12114;53.404;-1.502;2023-09-07T15:48:13;8.43;;;5.15;;
23866;SDS011;12114;53.404;-1.502;2023-09-07T15:50:57;11.07;;;5.88;;
23866;SDS011;12114;53.404;-1.502;2023-09-07T15:53:41;11.85;;;6.10;;
23866;SDS011;12114;53.404;-1.502;2023-09-07T15:56:25;7.05;;;5.10;;
23866;SDS011;12114;53.404;-1.502;2023-09-07T15:59:09;10.13;;;5.40;;